Gila Bend, Arizona
Current Conditions -  °F | °C
As of 4:56 PM on Sunday 25 Jan 2015 (Local Time) from KGXF Reporting Station
Few Clouds Few Clouds  
Wind Chill: 22°   Ceiling: Unl
Heat Index: 22°   Visibility: 10mi
Dew Point: -7°   Wind: 10mph
Humidity: 14%   Direction: 80°E
Pressure: 30.01"   Gusts: NA
Location:  32.95°N, 112.72°W
Report Text: KGXF 252356Z AUTO 08009KT 10SM FEW200 22/M07 A3001 RMK AO2 SLP158 T02241069 10234 20161
Loading
Personal Weather Stations






























Interactive Weather Map New forecast layout! Learn more

10-Day Weather Forecast

Advertisements
Track Severe Weather on mobile